createdAt,value
2019-05-19T00:02:24.046Z,12.60
2019-05-19T00:07:15.493Z,12.50
2019-05-19T00:12:06.814Z,12.60
2019-05-19T00:17:00.478Z,12.60
2019-05-19T00:21:51.893Z,12.70
2019-05-19T00:26:43.287Z,12.60
2019-05-19T00:31:34.623Z,12.60
2019-05-19T00:36:26.088Z,12.50
2019-05-19T00:41:17.493Z,12.50
2019-05-19T00:46:08.817Z,12.40
2019-05-19T00:51:00.194Z,12.40
2019-05-19T00:55:51.669Z,12.40
2019-05-19T01:00:43.084Z,12.40
2019-05-19T01:05:34.459Z,12.40
2019-05-19T01:10:25.789Z,12.40
2019-05-19T01:15:17.224Z,12.40
2019-05-19T01:20:08.562Z,12.40
2019-05-19T01:24:59.973Z,12.40
2019-05-19T01:29:55.992Z,12.40
2019-05-19T01:34:47.460Z,12.40
2019-05-19T01:39:38.829Z,12.40
2019-05-19T01:44:30.184Z,12.50
2019-05-19T01:49:26.142Z,12.40
2019-05-19T01:54:17.530Z,12.40
2019-05-19T01:59:13.460Z,12.40
2019-05-19T02:04:04.854Z,12.30
2019-05-19T02:08:58.530Z,12.30
2019-05-19T02:13:49.947Z,12.20
2019-05-19T02:18:41.339Z,12.20
2019-05-19T02:23:33.736Z,12.10
2019-05-19T02:28:24.168Z,12.10
2019-05-19T02:33:17.727Z,12.10
2019-05-19T02:38:11.444Z,12.00
2019-05-19T02:43:02.829Z,12.00
2019-05-19T02:47:54.298Z,12.00
2019-05-19T02:52:45.591Z,12.00
2019-05-19T02:57:37.019Z,12.00
2019-05-19T03:02:28.431Z,12.00
2019-05-19T03:07:19.840Z,12.00
2019-05-19T03:12:11.199Z,12.00
2019-05-19T03:17:02.689Z,12.00
2019-05-19T03:21:54.000Z,12.00
2019-05-19T03:26:45.436Z,12.00
2019-05-19T03:31:36.822Z,12.00
2019-05-19T03:36:28.213Z,11.90
2019-05-19T03:41:19.558Z,11.90
2019-05-19T03:46:10.975Z,11.90
2019-05-19T03:51:04.631Z,12.00
2019-05-19T03:55:56.086Z,12.00
2019-05-19T04:00:47.390Z,12.00
2019-05-19T04:05:38.841Z,12.10
2019-05-19T04:10:30.168Z,12.10
2019-05-19T04:15:21.615Z,12.20
2019-05-19T04:20:12.971Z,12.20
2019-05-19T04:25:04.381Z,12.30
2019-05-19T04:29:55.794Z,12.40
2019-05-19T04:34:47.314Z,12.40
2019-05-19T04:39:38.851Z,12.40
2019-05-19T04:44:30.289Z,12.50
2019-05-19T04:49:21.656Z,12.50
2019-05-19T04:54:13.074Z,12.60
2019-05-19T04:59:04.432Z,12.60
2019-05-19T05:03:55.788Z,12.60
2019-05-19T05:08:47.178Z,12.70
2019-05-19T05:13:38.560Z,12.80
2019-05-19T05:18:30.080Z,12.90
2019-05-19T05:23:21.313Z,13.10
2019-05-19T05:28:12.738Z,13.20
2019-05-19T05:33:04.121Z,13.40
2019-05-19T05:37:55.580Z,13.60
2019-05-19T05:42:46.864Z,13.70
2019-05-19T05:47:38.338Z,13.90
2019-05-19T05:52:39.601Z,14.00
2019-05-19T05:57:21.113Z,14.10
2019-05-19T06:02:12.480Z,14.40
2019-05-19T06:07:06.089Z,14.60
2019-05-19T06:11:57.538Z,14.80
2019-05-19T06:16:48.933Z,15.40
2019-05-19T06:21:40.336Z,15.90
2019-05-19T06:26:31.656Z,16.30
2019-05-19T06:31:23.108Z,16.40
2019-05-19T06:36:14.523Z,16.50
2019-05-19T06:41:05.856Z,17.30
2019-05-19T06:45:59.496Z,17.40
2019-05-19T06:50:50.903Z,17.30
2019-05-19T06:55:42.411Z,17.60
2019-05-19T07:00:33.685Z,17.60
2019-05-19T07:05:27.381Z,18.30
2019-05-19T07:10:18.754Z,18.30
2019-05-19T07:15:10.203Z,18.00
2019-05-19T07:20:01.566Z,17.90
2019-05-19T07:24:53.003Z,17.80
2019-05-19T07:29:44.373Z,17.90
2019-05-19T07:34:35.979Z,18.10
2019-05-19T07:39:27.200Z,18.10
2019-05-19T07:44:18.513Z,18.30
2019-05-19T07:49:09.970Z,18.60
2019-05-19T07:54:01.367Z,19.00
2019-05-19T07:58:52.716Z,19.30
2019-05-19T08:03:44.064Z,19.20
2019-05-19T08:08:35.527Z,19.40
2019-05-19T08:13:26.922Z,19.70
2019-05-19T08:18:18.262Z,19.70
2019-05-19T08:23:09.632Z,19.60
2019-05-19T08:28:09.777Z,19.80
2019-05-19T08:32:52.505Z,19.90
2019-05-19T08:37:43.912Z,19.80
2019-05-19T08:42:35.265Z,20.00
2019-05-19T08:47:26.666Z,20.00
2019-05-19T08:52:18.102Z,19.80
2019-05-19T08:57:11.725Z,19.90
2019-05-19T09:02:03.113Z,19.90
2019-05-19T09:06:54.538Z,19.90
2019-05-19T09:11:48.595Z,20.20
2019-05-19T09:16:37.275Z,20.00
2019-05-19T09:21:28.989Z,19.90
2019-05-19T09:26:20.140Z,20.50
2019-05-19T09:31:11.493Z,20.50
2019-05-19T09:36:05.140Z,20.40
2019-05-19T09:40:56.478Z,20.30
2019-05-19T09:45:47.928Z,20.00
2019-05-19T09:50:39.292Z,19.40
2019-05-19T09:55:30.724Z,19.00
2019-05-19T10:00:22.027Z,19.20
2019-05-19T10:05:13.476Z,19.40
2019-05-19T10:10:04.851Z,19.70
2019-05-19T10:14:56.267Z,19.70
2019-05-19T10:19:47.625Z,19.90
2019-05-19T10:29:35.003Z,20.00
2019-05-19T10:34:26.371Z,19.90
2019-05-19T10:39:17.758Z,20.40
2019-05-19T10:44:09.197Z,20.70
2019-05-19T10:49:00.564Z,20.70
2019-05-19T10:53:51.927Z,21.00
2019-05-19T10:58:45.581Z,21.30
2019-05-19T11:03:37.045Z,21.30
2019-05-19T11:08:28.437Z,21.80
2019-05-19T11:13:19.817Z,21.90
2019-05-19T11:18:11.192Z,21.90
2019-05-19T11:23:02.602Z,21.60
2019-05-19T11:27:54.020Z,21.10
2019-05-19T11:32:45.463Z,21.00
2019-05-19T11:37:36.799Z,20.90
2019-05-19T11:42:28.401Z,20.80
2019-05-19T11:47:19.580Z,20.20
2019-05-19T11:52:10.964Z,20.00
2019-05-19T11:57:02.379Z,20.00
2019-05-19T12:01:53.717Z,19.90
2019-05-19T12:06:45.138Z,20.10
2019-05-19T12:11:36.483Z,20.00
2019-05-19T12:16:27.945Z,20.00
2019-05-19T12:21:19.350Z,19.90
2019-05-19T12:26:24.225Z,20.00
2019-05-19T12:31:02.170Z,20.10
2019-05-19T12:35:54.050Z,20.60
2019-05-19T12:40:45.388Z,20.60
2019-05-19T12:50:28.144Z,20.70
2019-05-19T12:55:19.580Z,20.40
2019-05-19T13:00:10.968Z,20.30
2019-05-19T13:05:06.923Z,20.00
2019-05-19T13:09:53.759Z,20.00
2019-05-19T13:14:45.153Z,20.40
2019-05-19T13:19:36.603Z,20.40
2019-05-19T13:24:28.049Z,20.50
2019-05-19T13:29:19.312Z,20.30
2019-05-19T13:34:10.771Z,20.60
2019-05-19T13:39:02.122Z,20.60
2019-05-19T13:43:53.505Z,20.60
2019-05-19T13:48:44.923Z,20.20
2019-05-19T13:53:36.284Z,20.20
2019-05-19T13:58:27.789Z,20.00
2019-05-19T14:03:19.054Z,20.00
2019-05-19T14:08:10.493Z,20.30
2019-05-19T14:13:02.501Z,20.20
2019-05-19T14:17:53.970Z,20.30
2019-05-19T14:22:45.277Z,20.40
2019-05-19T14:27:36.730Z,20.40
2019-05-19T14:32:28.102Z,20.40
2019-05-19T14:37:21.699Z,20.50
2019-05-19T14:42:13.109Z,20.40
2019-05-19T14:47:04.535Z,20.40
2019-05-19T14:52:26.476Z,20.10
2019-05-19T14:57:17.848Z,20.00
2019-05-19T15:02:09.217Z,20.00
2019-05-19T15:07:00.625Z,19.80
2019-05-19T15:11:52.059Z,19.80
2019-05-19T15:16:43.426Z,20.00
2019-05-19T15:21:34.842Z,20.10
2019-05-19T15:26:26.219Z,20.10
2019-05-19T15:31:17.632Z,20.10
2019-05-19T15:36:08.974Z,20.10
2019-05-19T15:41:00.336Z,20.20
2019-05-19T15:45:52.152Z,20.20
2019-05-19T15:50:45.573Z,20.70
2019-05-19T15:55:37.013Z,20.60
2019-05-19T16:00:28.275Z,21.00
2019-05-19T16:05:21.975Z,21.50
2019-05-19T16:10:13.405Z,21.50
2019-05-19T16:15:04.785Z,21.70
2019-05-19T16:19:56.103Z,21.90
2019-05-19T16:24:49.899Z,22.10
2019-05-19T16:29:41.212Z,22.10
2019-05-19T16:34:32.661Z,21.70
2019-05-19T16:39:24.033Z,21.60
2019-05-19T16:44:15.379Z,21.60
2019-05-19T16:49:09.059Z,21.60
2019-05-19T16:54:00.416Z,21.60
2019-05-19T16:58:52.004Z,21.20
2019-05-19T17:03:43.311Z,21.20
2019-05-19T17:08:34.728Z,20.60
2019-05-19T17:13:26.136Z,20.40
2019-05-19T17:18:17.575Z,20.40
2019-05-19T17:23:08.879Z,19.70
2019-05-19T17:28:00.460Z,19.70
2019-05-19T17:32:51.669Z,19.30
2019-05-19T17:37:43.119Z,19.20
2019-05-19T17:42:37.872Z,19.00
2019-05-19T17:47:25.849Z,18.90
2019-05-19T17:52:17.195Z,18.80
2019-05-19T17:57:08.687Z,18.60
2019-05-19T18:02:00.079Z,18.50
2019-05-19T18:06:51.568Z,18.50
2019-05-19T18:11:42.968Z,18.40
2019-05-19T18:16:34.363Z,18.30
2019-05-19T18:21:25.687Z,18.20
2019-05-19T18:26:17.063Z,18.20
2019-05-19T18:31:08.497Z,17.90
2019-05-19T18:35:59.868Z,17.90
2019-05-19T18:40:51.155Z,17.70
2019-05-19T18:45:42.685Z,17.30
2019-05-19T18:50:36.240Z,17.20
2019-05-19T18:55:27.714Z,17.00
2019-05-19T19:00:19.050Z,16.90
2019-05-19T19:05:10.412Z,16.90
2019-05-19T19:10:01.814Z,16.80
2019-05-19T19:14:53.302Z,16.60
2019-05-19T19:19:44.609Z,16.40
2019-05-19T19:24:39.272Z,16.40
2019-05-19T19:29:27.449Z,16.30
2019-05-19T19:34:18.829Z,16.30
2019-05-19T19:39:10.212Z,16.30
2019-05-19T19:44:01.577Z,16.30
2019-05-19T19:48:52.941Z,16.20
2019-05-19T19:53:44.361Z,16.20
2019-05-19T19:58:35.717Z,16.20
2019-05-19T20:03:27.186Z,16.20
2019-05-19T20:08:18.439Z,16.20
2019-05-19T20:13:09.923Z,16.10
2019-05-19T20:18:01.259Z,16.10
2019-05-19T20:22:52.687Z,16.00
2019-05-19T20:27:44.074Z,16.00
2019-05-19T20:37:29.032Z,15.90
2019-05-19T20:42:20.432Z,15.90
2019-05-19T20:47:14.089Z,15.80
2019-05-19T20:52:07.729Z,15.80
2019-05-19T20:56:59.469Z,15.70
2019-05-19T21:01:52.785Z,15.60
2019-05-19T21:06:44.306Z,15.70
2019-05-19T21:11:35.534Z,15.70
2019-05-19T21:16:27.015Z,15.80
2019-05-19T21:21:18.306Z,15.70
2019-05-19T21:26:09.789Z,15.70
2019-05-19T21:31:06.878Z,15.70
2019-05-19T21:40:48.432Z,15.40
2019-05-19T21:45:39.894Z,15.40
2019-05-19T21:50:33.500Z,15.20
2019-05-19T21:55:24.894Z,15.20
2019-05-19T22:00:18.464Z,15.20
2019-05-19T22:05:09.954Z,15.10
2019-05-19T22:10:01.435Z,15.00
2019-05-19T22:14:52.682Z,14.90
2019-05-19T22:19:46.354Z,14.70
2019-05-19T22:24:37.825Z,14.60
2019-05-19T22:29:31.408Z,14.40
2019-05-19T22:34:22.857Z,14.30
2019-05-19T22:39:14.229Z,14.00
2019-05-19T22:44:07.829Z,13.90
2019-05-19T22:48:59.263Z,13.70
2019-05-19T22:53:50.613Z,13.60
2019-05-19T22:58:42.313Z,13.40
2019-05-19T23:03:33.390Z,13.30
2019-05-19T23:08:24.765Z,13.00
2019-05-19T23:13:16.176Z,12.70
2019-05-19T23:18:07.554Z,12.50
2019-05-19T23:22:58.925Z,12.40
2019-05-19T23:27:50.278Z,12.30
2019-05-19T23:32:41.741Z,12.30
2019-05-19T23:37:33.104Z,12.20
2019-05-19T23:42:24.436Z,12.20
2019-05-19T23:47:15.924Z,12.20
2019-05-19T23:52:07.268Z,12.20
2019-05-19T23:56:58.700Z,12.20
